Jacobus — OR3790 — position and weather

sailwx.info

Track history (hours):
 
Tides and Currents Weather Stations Pressure Air Temp Water Temp Dewpoint Dewpoint Depression Visibility Wind Speed Wind Dir Waves Ship Positions

Jacobus

Last reported at 2015-Aug-30 12:29 UTC. Time now 2015-Sep-02 17:00 UTC.
Position N 39°30' E 002°45'.

Length 17 m.

Type: Pleasure craft. MMSI: 205379010.

Date/timePositionNaut miles runAvg speedWind from/ knotsBaromVisibWave heightAir tempDewpointWater temp
2015-Aug-30 12:29N 39°30' E 002°45'0 0.0
2015-Aug-30 11:32N 39°30' E 002°45'0 0.0
2015-Aug-30 10:33N 39°30' E 002°45'4 3.9
2015-Aug-30 09:33N 39°27' E 002°43'5 5.0
2015-Aug-30 08:33N 39°22' E 002°46'6 6.0
2015-Aug-30 07:33N 39°19' E 002°52'6 6.0
2015-Aug-30 06:33N 39°17' E 002°60'5 5.0
2015-Aug-30 05:32N 39°16' E 003°06'7 6.9
2015-Aug-30 04:30N 39°20' E 003°14'7 7.0
2015-Aug-30 03:33N 39°22' E 003°22'9 7.1
2015-Aug-30 02:19N 39°26' E 003°33'  
2015-Aug-25 07:33N 40°50' E 013°32'7 7.3
2015-Aug-25 06:33N 40°48' E 013°41'7 7.0
2015-Aug-25 05:32N 40°46' E 013°50'5 4.5
2015-Aug-25 04:23N 40°45' E 013°56'0 0.0
2015-Aug-25 03:32N 40°45' E 013°56'0 0.0
2015-Aug-25 02:32N 40°45' E 013°56'0 0.0
2015-Aug-25 01:32N 40°45' E 013°56'0 0.0
2015-Aug-25 00:32N 40°45' E 013°56'0 0.0
2015-Aug-24 23:32N 40°45' E 013°56'0 0.0
2015-Aug-24 22:32N 40°45' E 013°56'0 0.0
2015-Aug-24 21:32N 40°45' E 013°56'0 0.0
2015-Aug-24 20:32N 40°45' E 013°56'0 0.0
2015-Aug-24 19:32N 40°45' E 013°56'0 0.0
2015-Aug-24 18:30N 40°45' E 013°56'3 3.4
2015-Aug-24 17:33N 40°46' E 014°00'6 5.7
2015-Aug-24 16:33N 40°46' E 014°08'7 2.3
2015-Aug-24 13:33N 40°50' E 014°15'1 0.0
2015-Aug-22 19:13N 40°49' E 014°15'4 6.5
2015-Aug-22 18:31N 40°46' E 014°10'6 6.5
2015-Aug-22 17:33N 40°44' E 014°02'1 1.1
2015-Aug-22 16:33N 40°45' E 014°00'0 0.0
2015-Aug-22 15:33N 40°45' E 014°00'0 0.0
2015-Aug-22 14:33N 40°45' E 014°00'0 0.0
2015-Aug-22 13:33N 40°45' E 014°00'0 0.0
2015-Aug-22 12:33N 40°45' E 014°00'0 0.2
2015-Aug-22 11:33N 40°45' E 014°00'5 5.5
2015-Aug-22 10:33N 40°40' E 013°56'2 0.1
2015-Aug-21 09:30N 40°42' E 013°57'3 2.8
2015-Aug-21 08:31N 40°45' E 013°57'0 0.0
2015-Aug-21 07:31N 40°45' E 013°57'0 0.0
2015-Aug-20 19:30N 40°45' E 013°57'0 0.0
2015-Aug-20 18:30N 40°45' E 013°57'0 0.0
2015-Aug-20 17:33N 40°45' E 013°57'1 0.6
2015-Aug-20 16:33N 40°45' E 013°57'2 2.3
2015-Aug-20 15:33N 40°45' E 013°54'1 0.9
2015-Aug-20 14:33N 40°45' E 013°55'2 2.1
2015-Aug-20 13:33N 40°47' E 013°57'  
Track history (hours):
 
Tides and Currents Weather Stations Pressure Air Temp Water Temp Dewpoint Dewpoint Depression Visibility Wind Speed Wind Dir Waves Ship Positions

Jacobus

Last reported at 2015-Aug-30 12:29 UTC. Time now 2015-Sep-02 17:00 UTC.
Position N 39°30' E 002°45'.

Length 17 m.

Type: Pleasure craft. MMSI: 205379010.

Date/timePositionNaut miles runAvg speedWind from/ knotsBaromVisibWave heightAir tempDewpointWater temp
2015-Aug-30 12:29N 39°30' E 002°45'0 0.0
2015-Aug-30 11:32N 39°30' E 002°45'0 0.0
2015-Aug-30 10:33N 39°30' E 002°45'4 3.9
2015-Aug-30 09:33N 39°27' E 002°43'5 5.0
2015-Aug-30 08:33N 39°22' E 002°46'6 6.0
2015-Aug-30 07:33N 39°19' E 002°52'6 6.0
2015-Aug-30 06:33N 39°17' E 002°60'5 5.0
2015-Aug-30 05:32N 39°16' E 003°06'7 6.9
2015-Aug-30 04:30N 39°20' E 003°14'7 7.0
2015-Aug-30 03:33N 39°22' E 003°22'9 7.1
2015-Aug-30 02:19N 39°26' E 003°33'  
2015-Aug-25 07:33N 40°50' E 013°32'7 7.3
2015-Aug-25 06:33N 40°48' E 013°41'7 7.0
2015-Aug-25 05:32N 40°46' E 013°50'5 4.5
2015-Aug-25 04:23N 40°45' E 013°56'0 0.0
2015-Aug-25 03:32N 40°45' E 013°56'0 0.0
2015-Aug-25 02:32N 40°45' E 013°56'0 0.0
2015-Aug-25 01:32N 40°45' E 013°56'0 0.0
2015-Aug-25 00:32N 40°45' E 013°56'0 0.0
2015-Aug-24 23:32N 40°45' E 013°56'0 0.0
2015-Aug-24 22:32N 40°45' E 013°56'0 0.0
2015-Aug-24 21:32N 40°45' E 013°56'0 0.0
2015-Aug-24 20:32N 40°45' E 013°56'0 0.0
2015-Aug-24 19:32N 40°45' E 013°56'0 0.0
2015-Aug-24 18:30N 40°45' E 013°56'3 3.4
2015-Aug-24 17:33N 40°46' E 014°00'6 5.7
2015-Aug-24 16:33N 40°46' E 014°08'7 2.3
2015-Aug-24 13:33N 40°50' E 014°15'1 0.0
2015-Aug-22 19:13N 40°49' E 014°15'4 6.5
2015-Aug-22 18:31N 40°46' E 014°10'6 6.5
2015-Aug-22 17:33N 40°44' E 014°02'1 1.1
2015-Aug-22 16:33N 40°45' E 014°00'0 0.0
2015-Aug-22 15:33N 40°45' E 014°00'0 0.0
2015-Aug-22 14:33N 40°45' E 014°00'0 0.0
2015-Aug-22 13:33N 40°45' E 014°00'0 0.0
2015-Aug-22 12:33N 40°45' E 014°00'0 0.2
2015-Aug-22 11:33N 40°45' E 014°00'5 5.5
2015-Aug-22 10:33N 40°40' E 013°56'2 0.1
2015-Aug-21 09:30N 40°42' E 013°57'3 2.8
2015-Aug-21 08:31N 40°45' E 013°57'0 0.0
2015-Aug-21 07:31N 40°45' E 013°57'0 0.0
2015-Aug-20 19:30N 40°45' E 013°57'0 0.0
2015-Aug-20 18:30N 40°45' E 013°57'0 0.0
2015-Aug-20 17:33N 40°45' E 013°57'1 0.6
2015-Aug-20 16:33N 40°45' E 013°57'2 2.3
2015-Aug-20 15:33N 40°45' E 013°54'1 0.9
2015-Aug-20 14:33N 40°45' E 013°55'2 2.1
2015-Aug-20 13:33N 40°47' E 013°57'  

Dump ship's entire track history